Time;durP1;ratioP1;P1;durP2;ratioP2;P2;SDS_P1;SDS_P2;PMS_P1;PMS_P2;Temp;Humidity;BMP_temperature;BMP_pressure;BME280_temperature;BME280_humidity;BME280_pressure;Samples;Min_cycle;Max_cycle;Signal;HPM_P1;HPM_P2
2021/12/31 00:01:53;;;;;;;;;56.75;47.00;;;;;;;;6493203;46;8895;-51
2021/12/31 00:07:55;;;;;;;;;61.33;50.67;;;;;;;;6493164;39;8966;-49
2021/12/31 00:13:57;;;;;;;;;66.67;54.00;;;;;;;;6493748;46;10006;-52
2021/12/31 00:20:05;;;;;;;;;65.00;54.33;;;;;;;;6493002;46;8872;-52
2021/12/31 00:26:07;;;;;;;;;74.33;53.33;;;;;;;;6494038;39;8903;-51
2021/12/31 00:32:09;;;;;;;;;75.67;58.67;;;;;;;;6493940;39;8864;-55
2021/12/31 00:38:11;;;;;;;;;80.00;60.67;;;;;;;;6492416;46;8949;-54
2021/12/31 00:44:14;;;;;;;;;75.33;58.67;;;;;;;;6493632;39;8864;-51
2021/12/31 00:50:17;;;;;;;;;65.67;50.67;;;;;;;;6492402;46;8892;-52
2021/12/31 00:56:20;;;;;;;;;73.33;60.67;;;;;;;;6493185;46;8876;-54
2021/12/31 01:02:25;;;;;;;;;77.67;58.33;;;;;;;;6493012;39;8884;-49
2021/12/31 01:08:27;;;;;;;;;73.67;58.00;;;;;;;;6493270;31;8880;-52
2021/12/31 01:14:54;;;;;;;;;70.00;54.67;;;;;;;;6493254;47;8835;-55
2021/12/31 01:20:56;;;;;;;;;67.00;52.00;;;;;;;;6492197;47;8864;-50
2021/12/31 01:26:59;;;;;;;;;65.33;49.00;;;;;;;;6493963;39;8911;-51
2021/12/31 01:33:02;;;;;;;;;61.75;52.00;;;;;;;;6492184;47;8856;-53
2021/12/31 01:39:11;;;;;;;;;62.75;52.25;;;;;;;;6493281;39;8862;-53
2021/12/31 01:45:17;;;;;;;;;50.75;47.25;;;;;;;;6492741;39;8914;-51
2021/12/31 01:51:20;;;;;;;;;51.50;45.00;;;;;;;;6493349;39;9552;-51
2021/12/31 01:57:23;;;;;;;;;48.75;43.25;;;;;;;;6495043;46;8863;-49
2021/12/31 02:03:25;;;;;;;;;55.25;45.25;;;;;;;;6494113;39;8951;-54
2021/12/31 02:09:31;;;;;;;;;42.75;41.25;;;;;;;;6494303;46;8970;-51
2021/12/31 02:15:34;;;;;;;;;57.00;44.33;;;;;;;;6494336;39;9581;-53
2021/12/31 02:21:37;;;;;;;;;44.33;39.00;;;;;;;;6494309;39;8848;-53
2021/12/31 02:27:40;;;;;;;;;54.00;45.00;;;;;;;;6494623;39;8957;-49
2021/12/31 02:33:43;;;;;;;;;53.00;45.33;;;;;;;;6494277;39;8864;-52
2021/12/31 02:39:45;;;;;;;;;38.33;37.33;;;;;;;;6494353;46;8858;-52
2021/12/31 02:45:50;;;;;;;;;49.50;40.75;;;;;;;;6493577;39;8935;-53
2021/12/31 02:51:52;;;;;;;;;48.50;40.75;;;;;;;;6493707;46;8898;-52
2021/12/31 02:57:54;;;;;;;;;54.50;46.00;;;;;;;;6495144;39;9010;-52
2021/12/31 03:03:58;;;;;;;;;53.75;44.50;;;;;;;;6493899;39;8989;-51
2021/12/31 03:10:02;;;;;;;;;42.00;36.50;;;;;;;;6495001;39;8860;-48
2021/12/31 03:16:06;;;;;;;;;48.75;42.50;;;;;;;;6493410;46;8901;-50
2021/12/31 03:22:08;;;;;;;;;44.50;33.25;;;;;;;;6494473;31;8840;-50
2021/12/31 03:28:12;;;;;;;;;40.00;37.50;;;;;;;;6493192;46;8903;-49
2021/12/31 03:34:14;;;;;;;;;41.25;37.75;;;;;;;;6493315;46;8866;-51
2021/12/31 03:40:17;;;;;;;;;22.25;18.75;;;;;;;;6493834;39;8819;-52
2021/12/31 03:46:19;;;;;;;;;49.75;39.00;;;;;;;;6493843;39;8876;-51
2021/12/31 03:52:21;;;;;;;;;36.25;32.50;;;;;;;;6493657;39;8919;-51
2021/12/31 03:58:23;;;;;;;;;35.50;30.75;;;;;;;;6494567;39;8872;-52
2021/12/31 04:04:25;;;;;;;;;36.33;31.67;;;;;;;;6493472;31;8998;-53
2021/12/31 04:10:28;;;;;;;;;35.00;30.00;;;;;;;;6494457;31;8873;-51
2021/12/31 04:16:30;;;;;;;;;54.25;45.25;;;;;;;;6492946;39;8901;-52
2021/12/31 04:22:33;;;;;;;;;39.75;35.25;;;;;;;;6493538;31;8868;-53
2021/12/31 04:28:35;;;;;;;;;47.00;38.50;;;;;;;;6493491;39;9506;-54
2021/12/31 04:34:37;;;;;;;;;42.25;36.25;;;;;;;;6492356;46;8872;-55
2021/12/31 04:40:39;;;;;;;;;47.75;38.50;;;;;;;;6493561;39;8831;-52
2021/12/31 04:46:41;;;;;;;;;39.50;37.75;;;;;;;;6492518;46;8864;-53
2021/12/31 04:52:45;;;;;;;;;40.50;36.75;;;;;;;;6492580;46;8899;-56
2021/12/31 04:58:47;;;;;;;;;40.50;38.00;;;;;;;;6492908;47;8908;-51
2021/12/31 05:04:49;;;;;;;;;42.75;38.00;;;;;;;;6472635;39;9050;-52
2021/12/31 05:10:51;;;;;;;;;35.75;35.75;;;;;;;;6492080;47;8919;-54
2021/12/31 05:16:53;;;;;;;;;45.00;41.00;;;;;;;;6492778;31;8846;-55
2021/12/31 05:23:00;;;;;;;;;40.50;37.50;;;;;;;;6492270;39;8879;-51
2021/12/31 05:29:02;;;;;;;;;42.75;36.50;;;;;;;;6494876;46;8941;-51
2021/12/31 05:35:06;;;;;;;;;48.00;38.50;;;;;;;;6493965;39;8903;-56
2021/12/31 05:41:08;;;;;;;;;40.00;38.00;;;;;;;;6494595;39;8937;-53
2021/12/31 05:47:10;;;;;;;;;47.75;39.75;;;;;;;;6494009;39;8911;-53
2021/12/31 05:53:13;;;;;;;;;47.75;39.50;;;;;;;;6494273;39;8867;-55
2021/12/31 05:59:15;;;;;;;;;26.50;26.50;;;;;;;;6495598;39;8934;-54
2021/12/31 06:05:25;;;;;;;;;40.75;37.00;;;;;;;;6494395;31;9077;-53
2021/12/31 06:11:28;;;;;;;;;44.00;37.25;;;;;;;;6495290;31;8875;-52
2021/12/31 06:17:31;;;;;;;;;32.25;29.50;;;;;;;;6494895;39;8866;-51
2021/12/31 06:23:34;;;;;;;;;45.25;40.50;;;;;;;;6493884;39;8958;-51
2021/12/31 06:29:56;;;;;;;;;45.75;40.50;;;;;;;;6494231;46;8909;-52
2021/12/31 06:35:58;;;;;;;;;46.75;36.75;;;;;;;;6493319;31;8864;-48
2021/12/31 06:42:03;;;;;;;;;41.75;36.75;;;;;;;;6494534;46;8831;-54
2021/12/31 06:48:05;;;;;;;;;39.00;35.75;;;;;;;;6493362;46;8938;-52
2021/12/31 06:54:07;;;;;;;;;46.00;41.50;;;;;;;;6493925;31;8871;-51
2021/12/31 07:00:10;;;;;;;;;29.50;26.75;;;;;;;;6494333;39;9506;-54
2021/12/31 07:06:12;;;;;;;;;42.25;37.00;;;;;;;;6493661;46;8982;-51
2021/12/31 07:12:15;;;;;;;;;44.75;43.25;;;;;;;;6494664;39;8859;-51
2021/12/31 07:18:21;;;;;;;;;53.75;41.00;;;;;;;;6495073;31;9010;-52
2021/12/31 07:24:23;;;;;;;;;44.00;42.25;;;;;;;;6493691;31;8908;-48
2021/12/31 07:30:28;;;;;;;;;40.50;34.50;;;;;;;;6494291;39;9001;-52
2021/12/31 07:36:30;;;;;;;;;43.00;41.50;;;;;;;;6493176;46;8955;-51
2021/12/31 07:42:32;;;;;;;;;42.75;40.00;;;;;;;;6494389;31;8858;-51
2021/12/31 07:48:34;;;;;;;;;51.50;42.50;;;;;;;;6493806;31;8872;-54
2021/12/31 07:54:37;;;;;;;;;45.75;41.25;;;;;;;;6493284;31;8867;-50
2021/12/31 08:00:39;;;;;;;;;45.75;36.00;;;;;;;;6493975;46;8899;-54
2021/12/31 08:06:41;;;;;;;;;50.00;43.00;;;;;;;;6493681;39;9002;-54
2021/12/31 08:12:43;;;;;;;;;41.00;37.75;;;;;;;;6493662;46;8812;-53
2021/12/31 08:18:45;;;;;;;;;42.00;35.75;;;;;;;;6493045;46;8883;-56
2021/12/31 08:24:47;;;;;;;;;57.25;47.50;;;;;;;;6492708;39;8949;-56
2021/12/31 08:30:49;;;;;;;;;34.75;32.25;;;;;;;;6493950;46;8914;-53
2021/12/31 08:36:51;;;;;;;;;53.00;45.25;;;;;;;;6493920;31;8926;-55
2021/12/31 08:42:54;;;;;;;;;44.25;40.75;;;;;;;;6494184;39;8835;-52
2021/12/31 08:49:05;;;;;;;;;28.00;23.75;;;;;;;;6494247;39;8890;-53
2021/12/31 08:55:09;;;;;;;;;51.50;46.25;;;;;;;;6493026;31;8903;-51
2021/12/31 09:01:11;;;;;;;;;42.00;39.25;;;;;;;;6493934;31;8917;-54
2021/12/31 09:07:13;;;;;;;;;57.00;45.00;;;;;;;;6493934;39;8978;-54
2021/12/31 09:13:15;;;;;;;;;45.25;38.50;;;;;;;;6493014;39;8832;-51
2021/12/31 09:19:18;;;;;;;;;48.25;44.50;;;;;;;;6492806;46;8926;-54
2021/12/31 09:25:21;;;;;;;;;48.75;43.00;;;;;;;;6492374;39;8904;-51
2021/12/31 09:31:24;;;;;;;;;53.75;45.50;;;;;;;;6493451;47;8921;-50
2021/12/31 09:37:26;;;;;;;;;43.75;42.25;;;;;;;;6493344;31;8937;-51
2021/12/31 09:43:28;;;;;;;;;39.00;36.25;;;;;;;;6493175;47;8893;-54
2021/12/31 09:49:30;;;;;;;;;53.25;45.75;;;;;;;;6492855;39;9495;-54
2021/12/31 09:55:45;;;;;;;;;54.25;43.75;;;;;;;;6492893;39;8905;-55
2021/12/31 10:01:50;;;;;;;;;44.75;40.25;;;;;;;;6493158;39;8922;-52
2021/12/31 10:07:53;;;;;;;;;55.25;45.75;;;;;;;;6492116;31;8950;-50
2021/12/31 10:13:59;;;;;;;;;52.50;47.75;;;;;;;;6494524;46;8879;-52
2021/12/31 10:20:01;;;;;;;;;45.50;42.00;;;;;;;;6493986;39;8866;-52
2021/12/31 10:26:15;;;;;;;;;45.00;42.25;;;;;;;;6493829;46;8896;-50
2021/12/31 10:32:17;;;;;;;;;55.75;47.25;;;;;;;;6494499;31;8861;-52
2021/12/31 10:38:36;;;;;;;;;54.75;46.75;;;;;;;;6494577;31;8890;-53
2021/12/31 10:44:49;;;;;;;;;50.75;46.75;;;;;;;;6494107;46;8879;-56
2021/12/31 10:50:51;;;;;;;;;53.50;48.00;;;;;;;;6494174;39;8868;-50
2021/12/31 10:56:54;;;;;;;;;48.75;41.75;;;;;;;;6494555;39;8820;-53
2021/12/31 11:02:57;;;;;;;;;40.25;33.25;;;;;;;;6494724;31;8971;-51
2021/12/31 11:09:05;;;;;;;;;49.50;45.50;;;;;;;;6494359;39;9639;-53
2021/12/31 11:15:08;;;;;;;;;51.75;44.00;;;;;;;;6493788;31;9046;-55
2021/12/31 11:21:12;;;;;;;;;50.00;43.25;;;;;;;;6493929;46;8877;-51
2021/12/31 11:27:42;;;;;;;;;40.75;36.00;;;;;;;;6494614;39;9358;-53
2021/12/31 11:34:12;;;;;;;;;53.00;44.75;;;;;;;;6493781;46;8906;-51
2021/12/31 11:40:34;;;;;;;;;46.75;41.00;;;;;;;;6493775;39;8891;-53
2021/12/31 11:46:45;;;;;;;;;57.50;47.75;;;;;;;;6492679;31;8958;-52
2021/12/31 11:53:01;;;;;;;;;43.00;40.00;;;;;;;;6493818;39;8859;-51
2021/12/31 11:59:16;;;;;;;;;54.25;46.00;;;;;;;;6493108;46;8859;-54
2021/12/31 12:05:20;;;;;;;;;54.00;44.75;;;;;;;;6493605;46;9022;-54
2021/12/31 12:11:59;;;;;;;;;51.75;42.50;;;;;;;;6493294;39;8867;-54
2021/12/31 12:18:03;;;;;;;;;47.50;40.75;;;;;;;;6493982;39;8881;-54
2021/12/31 12:24:07;;;;;;;;;46.75;41.50;;;;;;;;6493463;39;8844;-52
2021/12/31 12:30:12;;;;;;;;;39.75;36.75;;;;;;;;6493687;39;8872;-54
2021/12/31 12:36:15;;;;;;;;;58.00;47.50;;;;;;;;6493116;39;9046;-51
2021/12/31 12:42:20;;;;;;;;;56.00;48.25;;;;;;;;6493452;39;8838;-53
2021/12/31 12:49:00;;;;;;;;;54.50;46.50;;;;;;;;6493696;31;9451;-54
2021/12/31 12:55:11;;;;;;;;;51.50;43.50;;;;;;;;6492088;46;8993;-54
2021/12/31 13:01:14;;;;;;;;;55.50;43.00;;;;;;;;6493174;46;8859;-56
2021/12/31 13:07:21;;;;;;;;;64.75;50.75;;;;;;;;6493246;39;8903;-52
2021/12/31 13:13:23;;;;;;;;;59.75;47.50;;;;;;;;6492906;39;8880;-51
2021/12/31 13:19:36;;;;;;;;;53.50;45.25;;;;;;;;6493958;39;8857;-53
2021/12/31 13:25:46;;;;;;;;;54.00;41.25;;;;;;;;6492370;39;8896;-51
2021/12/31 13:31:48;;;;;;;;;59.75;50.75;;;;;;;;6493307;39;8855;-54
2021/12/31 13:38:01;;;;;;;;;67.25;54.50;;;;;;;;6492089;46;8844;-53
2021/12/31 13:44:05;;;;;;;;;66.00;53.50;;;;;;;;6493140;39;8888;-52
2021/12/31 13:50:10;;;;;;;;;68.75;56.00;;;;;;;;6496024;31;8908;-50
2021/12/31 13:56:12;;;;;;;;;59.50;47.50;;;;;;;;6494120;46;8872;-52
2021/12/31 14:02:26;;;;;;;;;62.50;49.25;;;;;;;;6495324;39;8813;-55
2021/12/31 14:14:36;;;;;;;;;64.50;53.25;;;;;;;;6494625;39;9495;-56
2021/12/31 14:20:47;;;;;;;;;75.25;59.75;;;;;;;;6495266;31;8815;-55
2021/12/31 14:26:49;;;;;;;;;68.25;54.75;;;;;;;;6494547;31;9557;-51
2021/12/31 14:32:53;;;;;;;;;70.50;57.75;;;;;;;;6494698;46;8895;-53
2021/12/31 14:38:55;;;;;;;;;65.75;51.25;;;;;;;;6493846;39;8864;-56
2021/12/31 14:44:59;;;;;;;;;70.00;56.00;;;;;;;;6493845;39;9554;-52
2021/12/31 14:51:04;;;;;;;;;72.25;57.25;;;;;;;;6495024;31;8926;-54
2021/12/31 14:57:10;;;;;;;;;51.50;44.50;;;;;;;;6493640;46;8989;-51
2021/12/31 15:03:12;;;;;;;;;68.75;54.25;;;;;;;;6494306;46;8832;-53
2021/12/31 15:09:14;;;;;;;;;62.50;51.75;;;;;;;;6493911;46;9049;-57
2021/12/31 15:15:16;;;;;;;;;58.75;51.25;;;;;;;;6494578;39;8860;-52
2021/12/31 15:21:21;;;;;;;;;67.00;56.75;;;;;;;;6493896;31;8839;-52
2021/12/31 15:27:24;;;;;;;;;68.50;52.50;;;;;;;;6493374;46;8900;-48
2021/12/31 15:33:26;;;;;;;;;51.25;46.75;;;;;;;;6494849;39;9503;-54
2021/12/31 15:39:29;;;;;;;;;65.25;52.75;;;;;;;;6493688;39;8856;-54
2021/12/31 15:45:32;;;;;;;;;64.75;54.75;;;;;;;;6493792;39;8926;-53
2021/12/31 15:51:37;;;;;;;;;71.75;54.25;;;;;;;;6494242;39;8876;-54
2021/12/31 15:57:39;;;;;;;;;69.50;56.00;;;;;;;;6493306;31;8871;-54
2021/12/31 16:03:41;;;;;;;;;71.00;54.25;;;;;;;;6495127;39;8922;-54
2021/12/31 16:09:44;;;;;;;;;56.25;49.00;;;;;;;;6493281;39;8902;-53
2021/12/31 16:15:46;;;;;;;;;52.50;39.50;;;;;;;;6493221;46;8920;-53
2021/12/31 16:21:48;;;;;;;;;57.25;45.00;;;;;;;;6493528;46;8905;-55
2021/12/31 16:27:52;;;;;;;;;65.75;53.75;;;;;;;;6492608;46;8916;-54
2021/12/31 16:33:54;;;;;;;;;65.00;55.25;;;;;;;;6495221;31;8879;-54
2021/12/31 16:39:57;;;;;;;;;75.25;59.25;;;;;;;;6493614;39;8864;-53
2021/12/31 16:46:01;;;;;;;;;72.75;57.25;;;;;;;;6493825;31;8914;-53
2021/12/31 16:52:03;;;;;;;;;73.50;60.50;;;;;;;;6494481;39;9510;-55
2021/12/31 16:58:05;;;;;;;;;74.25;60.00;;;;;;;;6492558;39;8887;-54
2021/12/31 17:04:07;;;;;;;;;70.50;57.25;;;;;;;;6493687;31;8907;-57
2021/12/31 17:10:18;;;;;;;;;68.75;55.50;;;;;;;;6492616;47;8944;-54
2021/12/31 17:16:20;;;;;;;;;70.00;56.75;;;;;;;;6493150;31;9002;-54
2021/12/31 17:22:22;;;;;;;;;71.00;58.75;;;;;;;;6494249;46;8834;-52
2021/12/31 17:28:24;;;;;;;;;65.50;54.50;;;;;;;;6494813;39;8954;-51
2021/12/31 17:34:29;;;;;;;;;75.00;59.00;;;;;;;;6494732;39;9566;-51
2021/12/31 17:40:44;;;;;;;;;74.00;57.25;;;;;;;;6493150;46;8864;-55
2021/12/31 17:46:46;;;;;;;;;72.25;58.50;;;;;;;;6493252;39;9679;-53
2021/12/31 17:52:48;;;;;;;;;78.25;61.25;;;;;;;;6493300;39;8868;-52
2021/12/31 17:58:51;;;;;;;;;77.50;61.75;;;;;;;;6493216;39;8897;-53
2021/12/31 18:04:53;;;;;;;;;77.00;62.50;;;;;;;;6492663;46;8891;-53
2021/12/31 18:10:55;;;;;;;;;83.25;65.00;;;;;;;;6493353;31;9513;-54
2021/12/31 18:16:59;;;;;;;;;85.67;66.33;;;;;;;;6492832;46;8880;-52
2021/12/31 18:23:02;;;;;;;;;76.00;62.50;;;;;;;;6493357;39;8871;-52
2021/12/31 18:29:05;;;;;;;;;79.00;64.25;;;;;;;;6492970;39;8876;-51
2021/12/31 18:35:08;;;;;;;;;74.50;58.25;;;;;;;;6493337;46;8902;-53
2021/12/31 18:41:10;;;;;;;;;80.00;65.50;;;;;;;;6493083;39;8836;-55
2021/12/31 18:53:18;;;;;;;;;75.67;60.67;;;;;;;;6492406;39;8896;-56
2021/12/31 18:59:22;;;;;;;;;79.25;60.00;;;;;;;;6492812;39;8938;-52
2021/12/31 19:05:24;;;;;;;;;78.25;61.50;;;;;;;;6492437;39;8903;-53
2021/12/31 19:11:27;;;;;;;;;79.50;64.50;;;;;;;;6492282;39;8870;-53
2021/12/31 19:17:29;;;;;;;;;78.00;61.25;;;;;;;;6492319;46;8871;-56
2021/12/31 19:23:34;;;;;;;;;80.00;65.25;;;;;;;;6493069;39;8987;-52
2021/12/31 19:29:41;;;;;;;;;79.75;65.25;;;;;;;;6492539;39;8946;-53
2021/12/31 19:35:44;;;;;;;;;87.25;66.75;;;;;;;;6493332;31;8957;-53
2021/12/31 19:41:46;;;;;;;;;80.50;62.50;;;;;;;;6492588;31;8966;-54
2021/12/31 19:47:48;;;;;;;;;83.25;63.50;;;;;;;;6492002;46;8919;-52
2021/12/31 19:53:53;;;;;;;;;81.00;62.25;;;;;;;;6492012;39;8878;-51
2021/12/31 19:59:55;;;;;;;;;80.50;64.25;;;;;;;;6491049;39;8867;-56
2021/12/31 20:05:57;;;;;;;;;77.25;62.00;;;;;;;;6491247;39;8951;-54
2021/12/31 20:11:59;;;;;;;;;80.25;66.75;;;;;;;;6491554;39;8903;-53
2021/12/31 20:18:04;;;;;;;;;87.00;70.25;;;;;;;;6491421;39;8832;-54
2021/12/31 20:24:06;;;;;;;;;97.67;74.33;;;;;;;;6491443;39;8867;-53
2021/12/31 20:30:11;;;;;;;;;101.33;77.33;;;;;;;;6491735;31;8979;-53
2021/12/31 20:36:13;;;;;;;;;101.00;77.67;;;;;;;;6492612;39;8898;-55
2021/12/31 20:42:16;;;;;;;;;86.00;67.33;;;;;;;;6491031;31;8847;-51
2021/12/31 20:48:20;;;;;;;;;99.33;79.33;;;;;;;;6491535;39;8895;-52
2021/12/31 20:54:24;;;;;;;;;95.33;73.33;;;;;;;;6490517;46;8876;-52
2021/12/31 21:00:28;;;;;;;;;101.33;78.33;;;;;;;;6490654;39;8879;-53
2021/12/31 21:06:30;;;;;;;;;89.33;72.33;;;;;;;;6490431;46;8956;-51
2021/12/31 21:12:32;;;;;;;;;106.33;81.00;;;;;;;;6491344;39;8871;-53
